Time;durP1;ratioP1;P1;durP2;ratioP2;P2;SDS_P1;SDS_P2;PMS_P1;PMS_P2;Temp;Humidity;BMP_temperature;BMP_pressure;BME280_temperature;BME280_humidity;BME280_pressure;Samples;Min_cycle;Max_cycle;Signal;HPM_P1;HPM_P2
2024/04/20 00:00:55;;;;;;;7.40;4.10;;;;;;;9.40;64.68;99305.84;79349;1301;3013332;-66
2024/04/20 00:03:21;;;;;;;6.60;4.30;;;;;;;9.42;64.81;99304.70;79526;1301;3011612;-65
2024/04/20 00:05:49;;;;;;;7.70;4.10;;;;;;;9.41;65.22;99307.35;78186;1301;3025953;-61
2024/04/20 00:08:16;;;;;;;7.40;4.20;;;;;;;9.44;65.47;99309.66;79343;1295;3016295;-63
2024/04/20 00:10:43;;;;;;;9.60;4.10;;;;;;;9.42;65.62;99313.91;79220;1295;3011792;-64
2024/04/20 00:13:11;;;;;;;6.60;4.00;;;;;;;9.39;65.75;99310.27;78174;1301;3051676;-64
2024/04/20 00:15:39;;;;;;;7.20;4.10;;;;;;;9.39;65.44;99307.30;79469;1299;3013625;-65
2024/04/20 00:18:05;;;;;;;7.80;4.90;;;;;;;9.40;65.72;99309.85;79554;1301;3011734;-64
2024/04/20 00:20:33;;;;;;;6.10;4.20;;;;;;;9.37;65.99;99306.85;78242;1295;3052341;-63
2024/04/20 00:23:00;;;;;;;7.10;3.80;;;;;;;9.39;65.79;99311.81;79379;1295;3013614;-66
2024/04/20 00:25:27;;;;;;;4.80;3.40;;;;;;;9.40;65.52;99308.63;79203;1301;3011611;-64
2024/04/20 00:27:55;;;;;;;4.80;3.10;;;;;;;9.39;65.51;99307.45;78201;1300;3026032;-64
2024/04/20 00:30:21;;;;;;;5.00;3.40;;;;;;;9.42;65.60;99305.90;79420;1299;3018484;-65
2024/04/20 00:32:48;;;;;;;7.90;3.90;;;;;;;9.37;66.04;99308.42;79351;1295;3011883;-64
2024/04/20 00:35:18;;;;;;;5.50;3.60;;;;;;;9.35;66.44;99306.30;78348;1301;3028939;-63
2024/04/20 00:37:45;;;;;;;6.80;4.00;;;;;;;9.34;66.55;99309.14;79342;1296;3013239;-65
2024/04/20 00:40:11;;;;;;;8.20;3.90;;;;;;;9.36;66.65;99310.41;79543;1295;3013220;-63
2024/04/20 00:42:39;;;;;;;6.50;4.10;;;;;;;9.37;66.75;99312.48;78200;1300;3050350;-66
2024/04/20 00:45:06;;;;;;;5.30;3.70;;;;;;;9.36;67.11;99308.86;79533;1294;3013542;-64
2024/04/20 00:47:34;;;;;;;6.20;3.70;;;;;;;9.36;67.12;99310.23;79480;1297;3011865;-65
2024/04/20 00:50:02;;;;;;;6.40;3.80;;;;;;;9.38;67.13;99311.38;78415;1298;3053058;-62
2024/04/20 00:52:28;;;;;;;9.10;4.20;;;;;;;9.38;67.09;99311.16;79490;1296;3013631;-67
2024/04/20 00:54:55;;;;;;;5.90;3.80;;;;;;;9.40;67.24;99312.29;79316;1295;3011721;-61
2024/04/20 00:57:23;;;;;;;6.70;3.80;;;;;;;9.41;67.08;99315.20;78129;1298;3026658;-64
2024/04/20 00:59:50;;;;;;;6.50;3.80;;;;;;;9.42;67.01;99315.34;79627;1298;3012994;-64
2024/04/20 01:02:18;;;;;;;5.90;4.00;;;;;;;9.42;67.20;99316.90;79405;1301;3011925;-64
2024/04/20 01:04:45;;;;;;;6.90;3.90;;;;;;;9.40;67.26;99318.42;78304;1299;3051417;-64
2024/04/20 01:07:12;;;;;;;5.80;3.80;;;;;;;9.38;66.78;99313.08;79420;1295;3012892;-64
2024/04/20 01:09:39;;;;;;;6.30;4.30;;;;;;;9.38;66.42;99316.27;79352;1298;3012035;-63
2024/04/20 01:12:07;;;;;;;8.60;4.50;;;;;;;9.37;66.38;99313.16;78334;1301;3026853;-62
2024/04/20 01:14:33;;;;;;;7.20;4.80;;;;;;;9.33;66.52;99311.48;79463;1297;3013162;-63
2024/04/20 01:17:02;;;;;;;6.80;4.50;;;;;;;9.30;66.69;99312.37;79290;1298;3012014;-64
2024/04/20 01:19:31;;;;;;;7.90;4.50;;;;;;;9.31;66.63;99312.48;78374;1297;3052207;-62
2024/04/20 01:21:58;;;;;;;8.10;4.20;;;;;;;9.31;66.43;99310.02;79641;1300;3013086;-64
2024/04/20 01:24:24;;;;;;;7.20;4.20;;;;;;;9.28;66.47;99310.54;79573;1294;3013066;-64
2024/04/20 01:26:53;;;;;;;7.20;4.30;;;;;;;9.23;66.72;99312.55;78397;1301;3050417;-64
2024/04/20 01:29:20;;;;;;;5.00;4.10;;;;;;;9.22;66.63;99309.15;79591;1298;3013442;-61
2024/04/20 01:31:47;;;;;;;6.30;4.50;;;;;;;9.22;66.37;99312.46;79459;1300;3011660;-64
2024/04/20 01:34:15;;;;;;;5.40;4.10;;;;;;;9.20;66.20;99315.87;78110;1294;3051411;-64
2024/04/20 01:36:42;;;;;;;6.30;4.20;;;;;;;9.12;66.23;99317.92;79787;1296;3012944;-64
2024/04/20 01:39:08;;;;;;;7.90;4.30;;;;;;;9.10;66.35;99318.40;79481;1295;3011372;-63
2024/04/20 01:41:36;;;;;;;8.90;4.30;;;;;;;9.13;66.51;99317.71;78114;1298;3026047;-60
2024/04/20 01:44:03;;;;;;;5.70;4.10;;;;;;;9.15;66.56;99316.69;79397;1308;3012920;-62
2024/04/20 01:46:30;;;;;;;8.70;4.70;;;;;;;9.17;66.51;99315.73;79436;1300;3011688;-67
2024/04/20 01:49:00;;;;;;;8.60;5.00;;;;;;;9.16;66.45;99315.76;78211;1298;3026533;-65
2024/04/20 01:51:26;;;;;;;6.70;5.00;;;;;;;9.14;66.81;99315.57;79495;1294;3013112;-62
2024/04/20 01:53:53;;;;;;;7.20;4.70;;;;;;;9.11;66.79;99313.63;79435;1301;3011722;-64
2024/04/20 01:56:21;;;;;;;5.70;4.60;;;;;;;9.11;66.81;99312.05;78128;1298;3048912;-65
2024/04/20 01:58:48;;;;;;;9.20;4.70;;;;;;;9.09;66.87;99315.45;79583;1304;3013537;-64
2024/04/20 02:01:14;;;;;;;11.00;5.50;;;;;;;9.09;66.74;99316.86;79675;1298;3013127;-65
2024/04/20 02:03:42;;;;;;;9.10;6.00;;;;;;;9.08;66.75;99319.00;78550;1299;3028164;-65
2024/04/20 02:06:09;;;;;;;10.60;6.50;;;;;;;9.08;66.34;99320.58;79672;1295;3019138;-66
2024/04/20 02:08:35;;;;;;;11.70;7.50;;;;;;;9.09;66.05;99324.24;78760;1295;4412999;-67
2024/04/20 02:11:05;;;;;;;12.80;7.50;;;;;;;9.10;66.11;99328.52;78377;1298;3026385;-70
2024/04/20 02:13:31;;;;;;;14.30;8.60;;;;;;;9.11;66.14;99328.30;79716;1296;3011871;-66
2024/04/20 02:15:58;;;;;;;12.70;8.70;;;;;;;9.11;66.07;99329.86;79630;1298;3013599;-66
2024/04/20 02:18:26;;;;;;;17.10;9.60;;;;;;;9.11;66.15;99324.98;78583;1295;3052747;-65
2024/04/20 02:20:52;;;;;;;16.70;11.50;;;;;;;9.12;66.09;99325.61;79764;1295;3013496;-66
2024/04/20 02:23:19;;;;;;;22.60;12.90;;;;;;;9.12;66.09;99325.27;79699;1299;3011591;-66
2024/04/20 02:25:46;;;;;;;20.80;13.90;;;;;;;9.10;66.13;99324.15;78390;1298;3025783;-65
2024/04/20 02:28:13;;;;;;;23.30;14.30;;;;;;;9.08;66.19;99326.01;79662;1298;3013020;-66
2024/04/20 02:30:40;;;;;;;20.20;13.30;;;;;;;9.09;66.32;99330.67;79735;1301;3011484;-65
2024/04/20 02:33:08;;;;;;;22.40;12.90;;;;;;;9.10;66.53;99330.62;78514;1298;3028373;-65
2024/04/20 02:35:38;;;;;;;22.20;12.60;;;;;;;9.06;66.93;99325.61;79698;1298;3012939;-67
2024/04/20 02:38:06;;;;;;;19.30;12.00;;;;;;;9.01;67.68;99333.75;78434;1296;3051776;-65
2024/04/20 02:40:33;;;;;;;22.20;12.80;;;;;;;8.99;68.11;99326.19;79723;1298;3012971;-66
2024/04/20 02:42:59;;;;;;;21.50;11.10;;;;;;;8.98;68.22;99326.25;79872;1298;3013299;-63
2024/04/20 02:45:27;;;;;;;19.60;10.50;;;;;;;8.97;68.64;99324.35;78364;1298;3025940;-66
2024/04/20 02:47:54;;;;;;;21.00;9.70;;;;;;;8.93;69.18;99321.62;79712;1294;3019229;-66
2024/04/20 02:50:20;;;;;;;18.20;9.60;;;;;;;8.88;69.65;99319.76;79625;1296;3011675;-62
2024/04/20 02:52:48;;;;;;;20.70;10.20;;;;;;;8.86;69.88;99316.20;78302;1295;3026972;-64
2024/04/20 02:55:15;;;;;;;17.80;9.20;;;;;;;8.84;70.04;99315.27;79564;1298;3013302;-64
2024/04/20 02:57:46;;;;;;;22.00;10.00;;;;;;;8.84;70.17;99314.05;79436;1298;3011911;-64
2024/04/20 03:00:14;;;;;;;16.50;9.10;;;;;;;8.83;70.18;99317.61;78294;1295;3067932;-61
2024/04/20 03:02:42;;;;;;;16.00;8.90;;;;;;;8.74;71.04;99322.81;79426;1298;3013807;-65
2024/04/20 03:05:08;;;;;;;19.50;9.30;;;;;;;8.74;71.03;99324.56;79863;1294;3013530;-66
2024/04/20 03:07:37;;;;;;;15.00;8.40;;;;;;;8.79;70.42;99319.79;78452;1297;3026215;-65
2024/04/20 03:10:04;;;;;;;18.20;8.70;;;;;;;8.84;70.18;99320.86;79586;1295;3011826;-64
2024/04/20 03:12:31;;;;;;;20.10;8.50;;;;;;;8.90;70.05;99314.59;79754;1298;3011814;-66
2024/04/20 03:14:59;;;;;;;21.60;8.30;;;;;;;8.94;69.82;99315.95;78617;1295;3026015;-67
2024/04/20 03:17:25;;;;;;;16.00;7.50;;;;;;;8.98;69.59;99319.58;79693;1298;3012891;-67
2024/04/20 03:19:52;;;;;;;15.10;7.30;;;;;;;9.00;69.43;99321.39;79660;1294;3011375;-63
2024/04/20 03:22:20;;;;;;;14.70;7.20;;;;;;;9.01;69.16;99319.61;78014;1295;3026954;-65
2024/04/20 03:24:47;;;;;;;15.40;6.80;;;;;;;9.01;68.93;99318.86;79370;1295;3013646;-67
2024/04/20 03:27:13;;;;;;;10.40;6.40;;;;;;;9.04;68.63;99320.45;79401;1298;3013002;-63
2024/04/20 03:29:41;;;;;;;14.20;6.40;;;;;;;9.06;68.41;99327.84;78444;1308;3068544;-66
2024/04/20 03:32:08;;;;;;;11.30;6.50;;;;;;;9.04;68.44;99329.70;79451;1300;3013768;-66
2024/04/20 03:34:34;;;;;;;13.30;6.40;;;;;;;9.05;68.21;99330.36;79720;1295;3011663;-66
2024/04/20 03:37:08;;;;;;;9.20;6.00;;;;;;;9.10;68.18;99329.71;78806;1299;3025870;-66
2024/04/20 03:39:35;;;;;;;10.10;6.00;;;;;;;9.16;67.97;99330.63;79501;1297;3011650;-66
2024/04/20 03:42:03;;;;;;;12.50;5.90;;;;;;;9.15;67.54;99330.88;78252;1298;3052520;-66
2024/04/20 03:44:30;;;;;;;9.80;5.30;;;;;;;9.16;67.49;99333.10;79471;1295;3012928;-66
2024/04/20 03:46:56;;;;;;;12.20;5.80;;;;;;;9.20;67.02;99338.96;79501;1295;3011968;-65
2024/04/20 03:49:24;;;;;;;14.30;6.20;;;;;;;9.26;66.85;99343.48;78265;1300;3026455;-65
2024/04/20 03:51:51;;;;;;;10.30;4.60;;;;;;;9.31;66.60;99341.48;79474;1300;3013995;-65
2024/04/20 03:54:18;;;;;;;12.90;5.00;;;;;;;9.35;66.51;99343.02;79437;1295;3011936;-66
2024/04/20 03:56:47;;;;;;;10.70;5.00;;;;;;;9.40;66.41;99346.91;78446;1301;3027681;-66
2024/04/20 03:59:14;;;;;;;14.20;4.90;;;;;;;9.45;66.44;99348.70;79515;1299;3013157;-64
2024/04/20 04:01:41;;;;;;;9.60;4.70;;;;;;;9.52;66.53;99348.34;79913;1295;3011587;-62
2024/04/20 04:04:09;;;;;;;9.80;4.80;;;;;;;9.54;66.63;99351.34;78576;1299;3056226;-67
2024/04/20 04:06:35;;;;;;;12.20;5.60;;;;;;;9.54;67.16;99350.11;79821;1295;3018598;-66
2024/04/20 04:09:02;;;;;;;9.60;5.30;;;;;;;9.58;67.44;99348.11;79595;1296;3011584;-64
2024/04/20 04:11:30;;;;;;;8.30;5.90;;;;;;;9.59;68.27;99354.57;78603;1301;3026477;-63
2024/04/20 04:13:57;;;;;;;10.00;5.30;;;;;;;9.63;68.47;99350.11;79793;1297;3018588;-64
2024/04/20 04:16:24;;;;;;;9.20;6.10;;;;;;;9.70;68.40;99356.34;79688;1295;3011893;-67
2024/04/20 04:18:52;;;;;;;8.70;5.70;;;;;;;9.71;68.64;99358.39;78642;1298;3028475;-65
2024/04/20 04:21:18;;;;;;;9.00;5.80;;;;;;;9.75;68.61;99358.73;79836;1295;3012619;-66
2024/04/20 04:23:46;;;;;;;9.20;5.10;;;;;;;9.82;67.93;99352.14;79764;1299;3011873;-63
2024/04/20 04:26:14;;;;;;;13.30;4.60;;;;;;;9.86;66.49;99356.45;78276;1300;3051663;-65
2024/04/20 04:28:40;;;;;;;9.70;4.80;;;;;;;9.90;65.88;99352.92;79895;1295;3013350;-65
2024/04/20 04:31:07;;;;;;;7.40;4.10;;;;;;;9.94;64.95;99357.77;79794;1298;3012037;-64
2024/04/20 04:33:35;;;;;;;5.40;3.80;;;;;;;9.97;64.39;99357.05;78517;1295;3029380;-65
2024/04/20 04:36:03;;;;;;;6.50;4.40;;;;;;;9.99;63.88;99359.55;79566;1294;3018464;-66
2024/04/20 04:38:29;;;;;;;7.00;3.50;;;;;;;9.99;63.03;99359.03;79830;1298;3011497;-62
2024/04/20 04:40:58;;;;;;;4.70;3.60;;;;;;;10.00;62.91;99357.58;78638;1295;3053898;-65
2024/04/20 04:43:25;;;;;;;6.90;4.20;;;;;;;10.06;62.88;99358.76;79746;1305;3013551;-63
2024/04/20 04:45:51;;;;;;;8.30;4.50;;;;;;;10.05;62.00;99354.65;79804;1295;3011898;-66
2024/04/20 04:48:22;;;;;;;6.60;3.70;;;;;;;10.09;61.61;99354.23;78371;1295;3026188;-66
2024/04/20 04:50:48;;;;;;;7.60;3.70;;;;;;;10.11;61.23;99358.34;79825;1294;3011566;-68
2024/04/20 04:53:15;;;;;;;6.90;3.40;;;;;;;10.21;61.79;99358.44;79770;1298;3011636;-65
2024/04/20 04:55:44;;;;;;;5.90;3.80;;;;;;;10.30;61.12;99356.14;78523;1298;3052927;-66
2024/04/20 04:58:10;;;;;;;7.70;3.60;;;;;;;10.33;60.26;99359.28;79500;1298;3011589;-63
2024/04/20 05:00:38;;;;;;;5.30;3.60;;;;;;;10.37;59.34;99356.63;79653;1297;3011495;-67
2024/04/20 05:03:06;;;;;;;5.00;3.30;;;;;;;10.38;58.94;99355.98;78666;1299;3056082;-64
2024/04/20 05:05:33;;;;;;;4.90;3.10;;;;;;;10.51;58.78;99358.75;79996;1295;3012771;-63
2024/04/20 05:07:59;;;;;;;6.80;3.30;;;;;;;10.55;58.36;99360.95;79765;1299;3013722;-65
2024/04/20 05:10:28;;;;;;;3.90;3.10;;;;;;;10.66;58.38;99359.55;78430;1298;3027125;-66
2024/04/20 05:12:55;;;;;;;7.70;3.30;;;;;;;10.69;57.50;99359.90;79612;1298;3013892;-64
2024/04/20 05:15:21;;;;;;;4.60;3.20;;;;;;;10.77;57.34;99363.59;79745;1298;3011586;-61
2024/04/20 05:17:51;;;;;;;5.30;3.30;;;;;;;10.82;56.89;99365.89;78432;1298;3028386;-62
2024/04/20 05:20:17;;;;;;;8.60;4.20;;;;;;;10.92;56.93;99365.59;79888;1297;3013276;-66
2024/04/20 05:22:44;;;;;;;4.00;3.20;;;;;;;10.95;56.41;99368.44;79542;1294;3011632;-64
2024/04/20 05:25:12;;;;;;;6.90;3.30;;;;;;;11.02;56.95;99376.02;78562;1295;3053035;-66
2024/04/20 05:27:39;;;;;;;6.60;3.20;;;;;;;11.11;56.50;99379.29;80075;1295;3013204;-67
2024/04/20 05:30:06;;;;;;;3.60;2.80;;;;;;;11.23;56.05;99380.83;79608;1298;3011915;-66
2024/04/20 05:32:34;;;;;;;5.40;2.90;;;;;;;11.28;55.09;99390.33;78591;1294;3055691;-66
2024/04/20 05:35:01;;;;;;;3.80;2.90;;;;;;;11.32;54.73;99396.19;79739;1296;3018720;-65
2024/04/20 05:37:28;;;;;;;5.00;3.10;;;;;;;11.35;54.99;99396.34;79716;1295;3011866;-67
2024/04/20 05:39:56;;;;;;;5.50;2.80;;;;;;;11.45;55.00;99395.73;78846;1298;3053518;-68
2024/04/20 05:42:23;;;;;;;4.10;3.00;;;;;;;11.57;54.85;99389.13;79795;1298;3019070;-65
2024/04/20 05:44:51;;;;;;;4.00;2.80;;;;;;;11.67;54.87;99384.27;80060;1297;3011782;-65
2024/04/20 05:47:19;;;;;;;4.60;2.60;;;;;;;11.78;54.22;99389.34;78533;1298;3056516;-67
2024/04/20 05:49:45;;;;;;;6.40;2.80;;;;;;;11.87;54.17;99390.27;79875;1295;3013081;-71
2024/04/20 05:52:12;;;;;;;8.00;3.10;;;;;;;11.99;54.15;99385.30;79944;1294;3011518;-71
2024/04/20 05:54:40;;;;;;;4.40;2.70;;;;;;;12.05;53.09;99384.55;78984;1300;3026712;-65
2024/04/20 05:57:06;;;;;;;4.20;2.60;;;;;;;12.06;53.34;99377.69;79763;1295;3020919;-66
2024/04/20 05:59:33;;;;;;;6.00;3.00;;;;;;;12.15;53.62;99377.77;79510;1298;3011573;-69
2024/04/20 06:02:01;;;;;;;4.80;3.00;;;;;;;12.23;53.14;99369.68;79013;1294;3026465;-66
2024/04/20 06:04:28;;;;;;;6.10;2.90;;;;;;;12.22;53.02;99367.23;80395;1294;3013190;-66
2024/04/20 06:06:56;;;;;;;4.70;2.80;;;;;;;12.22;53.42;99359.68;80011;1296;3013205;-66
2024/04/20 06:09:24;;;;;;;3.00;2.40;;;;;;;12.20;53.35;99362.66;78451;1295;3052622;-64
2024/04/20 06:11:50;;;;;;;3.40;2.60;;;;;;;12.26;53.30;99363.63;79877;1295;3013415;-63
2024/04/20 06:14:17;;;;;;;7.10;2.90;;;;;;;12.26;52.83;99365.91;79978;1297;3011649;-64
2024/04/20 06:16:45;;;;;;;4.00;2.50;;;;;;;12.28;52.56;99365.08;78275;1294;3026601;-64
2024/04/20 06:19:11;;;;;;;6.00;2.30;;;;;;;12.44;52.65;99362.39;79703;1294;3013071;-66
2024/04/20 06:21:38;;;;;;;5.30;2.40;;;;;;;12.55;52.14;99357.08;79562;1295;3011865;-67
2024/04/20 06:24:06;;;;;;;3.40;2.70;;;;;;;12.64;52.33;99351.89;78703;1298;3026246;-66
2024/04/20 06:26:33;;;;;;;4.40;2.90;;;;;;;12.70;52.15;99344.23;79966;1298;3013496;-68
2024/04/20 06:29:00;;;;;;;6.40;3.00;;;;;;;12.69;52.26;99341.36;79696;1295;3012052;-63
2024/04/20 06:31:27;;;;;;;4.20;2.70;;;;;;;12.83;52.23;99333.25;78765;1295;3028001;-65
2024/04/20 06:33:54;;;;;;;5.50;2.60;;;;;;;12.89;52.14;99334.44;79846;1297;3013304;-66
2024/04/20 06:36:21;;;;;;;4.40;2.30;;;;;;;13.00;51.80;99332.95;79567;1295;3011569;-65
2024/04/20 06:38:50;;;;;;;4.20;2.30;;;;;;;13.06;51.75;99336.71;78642;1297;3027079;-64
2024/04/20 06:41:17;;;;;;;3.80;2.40;;;;;;;13.05;51.50;99338.89;79631;1298;3015583;-65
2024/04/20 06:43:43;;;;;;;8.20;2.80;;;;;;;13.08;51.90;99338.16;79474;1297;3011775;-63
2024/04/20 06:46:11;;;;;;;5.80;2.50;;;;;;;13.22;51.35;99339.30;78506;1298;3056371;-65
2024/04/20 06:48:39;;;;;;;4.30;2.40;;;;;;;13.30;51.06;99334.45;80066;1295;3019021;-64
2024/04/20 06:51:06;;;;;;;3.10;2.00;;;;;;;13.37;50.76;99325.14;81978;1295;3011518;-64
2024/04/20 06:53:34;;;;;;;3.50;2.10;;;;;;;13.48;50.67;99325.90;80758;1294;3051926;-65
2024/04/20 06:56:00;;;;;;;4.20;2.20;;;;;;;13.53;50.96;99327.34;81267;1295;3018719;-65
2024/04/20 06:58:27;;;;;;;3.70;2.20;;;;;;;13.62;50.52;99325.27;80742;1294;3013157;-63
2024/04/20 07:00:55;;;;;;;6.30;2.50;;;;;;;13.70;50.86;99322.54;80750;1295;3026627;-65
2024/04/20 07:03:22;;;;;;;4.00;1.80;;;;;;;13.92;49.68;99316.46;82008;1295;3013227;-65
2024/04/20 07:05:55;;;;;;;4.30;1.50;;;;;;;14.10;48.94;99321.27;80056;1295;3012135;-66
2024/04/20 07:08:23;;;;;;;6.40;1.80;;;;;;;14.25;48.39;99320.24;78464;1297;3051889;-66
2024/04/20 07:10:55;;;;;;;2.80;1.60;;;;;;;14.36;47.85;99318.90;79602;1298;3013739;-66
2024/04/20 07:13:24;;;;;;;2.70;1.80;;;;;;;14.56;47.46;99315.73;78399;1295;3052476;-66
2024/04/20 07:15:51;;;;;;;4.80;1.60;;;;;;;14.66;47.17;99316.90;79652;1294;3013826;-68
2024/04/20 07:18:18;;;;;;;3.20;1.60;;;;;;;14.89;47.39;99314.71;79948;1297;3013983;-64
2024/04/20 07:20:46;;;;;;;3.30;1.50;;;;;;;15.05;46.78;99312.33;78589;1297;3027979;-67
2024/04/20 07:23:12;;;;;;;4.70;1.50;;;;;;;15.19;46.52;99302.96;79772;1297;3018559;-65
2024/04/20 07:25:40;;;;;;;2.30;1.50;;;;;;;15.27;45.49;99305.27;79639;1298;3011617;-67
2024/04/20 07:28:08;;;;;;;4.70;1.50;;;;;;;15.35;45.65;99303.38;78386;1295;3051488;-67
2024/04/20 07:30:35;;;;;;;3.90;1.70;;;;;;;15.39;45.23;99303.52;79746;1294;3014286;-68
2024/04/20 07:33:02;;;;;;;3.40;1.30;;;;;;;15.51;45.12;99299.73;79675;1295;3011943;-68
2024/04/20 07:35:30;;;;;;;2.70;1.40;;;;;;;15.61;45.13;99295.04;78520;1298;3050633;-66
2024/04/20 07:37:57;;;;;;;3.40;1.80;;;;;;;15.75;45.06;99292.66;79888;1297;3013067;-65
2024/04/20 07:40:25;;;;;;;3.40;1.80;;;;;;;15.87;44.34;99291.64;79852;1295;3013651;-65
2024/04/20 07:42:54;;;;;;;2.80;1.50;;;;;;;15.90;44.08;99283.96;78534;1294;3052554;-65
2024/04/20 07:45:20;;;;;;;2.10;1.40;;;;;;;15.94;43.93;99277.42;79732;1294;3013344;-66
2024/04/20 07:47:47;;;;;;;2.70;1.60;;;;;;;16.01;43.57;99276.98;79711;1294;3013067;-69
2024/04/20 07:50:15;;;;;;;6.90;1.50;;;;;;;16.08;42.90;99282.21;78682;1295;3048913;-66
2024/04/20 07:52:41;;;;;;;3.00;1.30;;;;;;;16.22;43.57;99274.67;79870;1298;3013516;-66
2024/04/20 07:55:08;;;;;;;2.80;1.60;;;;;;;16.19;42.89;99273.14;79718;1297;3011811;-65
2024/04/20 07:57:36;;;;;;;3.70;1.10;;;;;;;16.12;43.30;99271.15;78552;1297;3026521;-66
2024/04/20 08:00:03;;;;;;;3.20;1.60;;;;;;;16.18;42.98;99272.00;80005;1293;3013581;-68
2024/04/20 08:02:31;;;;;;;5.10;1.60;;;;;;;16.29;42.95;99273.69;79718;1295;3011828;-66
2024/04/20 08:05:00;;;;;;;2.70;1.40;;;;;;;16.32;42.70;99262.90;78729;1294;3050684;-70
2024/04/20 08:07:26;;;;;;;4.30;1.40;;;;;;;16.33;42.85;99263.64;79768;1294;3012953;-66
2024/04/20 08:09:53;;;;;;;2.40;1.30;;;;;;;16.35;42.48;99259.02;79654;1294;3011610;-66
2024/04/20 08:12:21;;;;;;;3.00;1.40;;;;;;;16.36;42.36;99246.59;78463;1298;3025126;-64
2024/04/20 08:14:48;;;;;;;3.60;1.30;;;;;;;16.30;42.55;99246.62;79590;1295;3013603;-68
2024/04/20 08:17:14;;;;;;;3.40;1.40;;;;;;;16.47;42.60;99241.77;79620;1294;3011560;-64
2024/04/20 08:19:42;;;;;;;3.00;1.50;;;;;;;16.45;42.59;99237.53;78338;1298;3025324;-66
2024/04/20 08:22:09;;;;;;;3.80;1.50;;;;;;;16.62;42.76;99232.80;79792;1294;3018173;-69
2024/04/20 08:24:35;;;;;;;3.80;1.40;;;;;;;16.80;41.73;99229.80;79923;1298;3011498;-67
2024/04/20 08:27:03;;;;;;;2.40;1.40;;;;;;;16.95;41.62;99230.21;78643;1295;3026460;-68
2024/04/20 08:29:32;;;;;;;5.10;1.40;;;;;;;17.01;41.56;99227.40;79813;1295;3013593;-68
2024/04/20 08:32:00;;;;;;;3.30;1.40;;;;;;;17.04;41.45;99224.44;79752;1295;3011634;-65
2024/04/20 08:34:28;;;;;;;3.60;1.60;;;;;;;17.03;41.58;99224.52;78438;1298;3051018;-65
2024/04/20 08:36:55;;;;;;;5.20;1.20;;;;;;;17.07;41.27;99224.17;79899;1297;3013299;-67
2024/04/20 08:39:22;;;;;;;5.90;1.50;;;;;;;17.18;41.52;99219.50;79751;1294;3011786;-65
2024/04/20 08:42:29;;;;;;;8.30;1.30;;;;;;;17.28;41.66;99218.52;78761;1297;3025831;-66
2024/04/20 08:44:57;;;;;;;8.90;1.40;;;;;;;17.30;41.42;99208.81;78156;1301;3056592;-65
2024/04/20 08:47:23;;;;;;;4.70;1.30;;;;;;;17.38;41.76;99202.58;79669;1295;3013161;-69
2024/04/20 08:49:50;;;;;;;2.70;1.00;;;;;;;17.49;40.67;99203.15;80227;1295;3011430;-64
2024/04/20 08:52:18;;;;;;;5.20;1.30;;;;;;;17.63;40.58;99202.94;79087;1295;3028804;-67
2024/04/20 08:54:45;;;;;;;3.80;1.10;;;;;;;17.72;40.31;99198.35;80116;1295;3012688;-64
2024/04/20 08:57:11;;;;;;;2.40;1.10;;;;;;;17.77;40.15;99196.45;79753;1298;3011588;-64
2024/04/20 08:59:39;;;;;;;7.70;2.60;;;;;;;17.90;39.96;99192.05;78603;1295;3026205;-68
2024/04/20 09:02:09;;;;;;;3.30;1.70;;;;;;;17.99;40.19;99189.59;80573;1295;3013223;-67
2024/04/20 09:04:38;;;;;;;3.70;1.10;;;;;;;18.05;39.28;99185.65;79594;1294;3011714;-66
2024/04/20 09:07:04;;;;;;;3.60;1.10;;;;;;;18.21;38.85;99186.96;80105;1295;3018532;-66
2024/04/20 09:09:31;;;;;;;8.50;1.10;;;;;;;18.25;38.66;99184.09;80105;1300;3013006;-68
2024/04/20 09:11:59;;;;;;;3.50;1.30;;;;;;;18.34;38.89;99181.70;78772;1296;3025572;-69
2024/04/20 09:14:25;;;;;;;2.20;1.10;;;;;;;18.44;38.86;99178.35;80165;1295;3013247;-72
2024/04/20 09:16:52;;;;;;;2.00;1.00;;;;;;;18.44;38.33;99179.39;80823;1298;3011560;-70
2024/04/20 09:19:20;;;;;;;0.80;0.70;;;;;;;18.53;37.45;99177.14;78802;1296;3026515;-70
2024/04/20 09:21:46;;;;;;;2.80;0.90;;;;;;;18.41;37.31;99176.73;79809;1297;3018983;-68
2024/04/20 09:24:13;;;;;;;3.90;1.00;;;;;;;18.54;37.34;99173.70;79940;1297;3011479;-66
2024/04/20 09:26:41;;;;;;;4.70;1.00;;;;;;;18.64;36.82;99165.25;78343;1300;3028588;-66
2024/04/20 09:29:07;;;;;;;4.50;0.80;;;;;;;18.63;36.48;99160.57;79767;1299;3012969;-65
2024/04/20 09:31:34;;;;;;;9.00;1.00;;;;;;;18.65;36.62;99152.52;79692;1295;3011723;-67
2024/04/20 09:34:02;;;;;;;4.70;0.80;;;;;;;18.67;36.13;99152.90;78906;1295;3026606;-72
2024/04/20 09:36:30;;;;;;;5.40;1.50;;;;;;;18.70;34.78;99154.33;80089;1297;3013099;-69
2024/04/20 09:38:56;;;;;;;3.90;1.50;;;;;;;18.76;34.43;99156.20;79871;1294;3011436;-69
2024/04/20 09:41:24;;;;;;;6.10;1.40;;;;;;;18.90;34.01;99154.55;78554;1298;3067850;-70
2024/04/20 09:43:55;;;;;;;4.90;1.30;;;;;;;18.99;34.74;99152.02;79694;1295;3013735;-72
2024/04/20 09:46:23;;;;;;;2.70;1.00;;;;;;;19.23;34.30;99146.09;78608;1294;3049021;-67
2024/04/20 09:48:49;;;;;;;5.70;0.80;;;;;;;19.27;34.32;99142.96;80168;1295;3013108;-67
2024/04/20 09:51:23;;;;;;;6.40;0.90;;;;;;;19.29;34.41;99140.88;80487;1295;3011238;-68
2024/04/20 09:53:52;;;;;;;1.80;1.20;;;;;;;19.17;34.52;99134.90;78418;1297;3052312;-68
2024/04/20 09:56:20;;;;;;;1.50;0.80;;;;;;;19.37;34.78;99131.63;80047;1298;3012755;-66
2024/04/20 09:58:46;;;;;;;2.80;0.90;;;;;;;19.45;34.57;99132.80;79686;1295;3011822;-68
2024/04/20 10:01:14;;;;;;;7.90;1.10;;;;;;;19.28;34.92;99136.45;78206;1295;3049004;-65
2024/04/20 10:03:41;;;;;;;2.60;0.90;;;;;;;19.28;35.07;99132.38;79606;1295;3018719;-67
2024/04/20 10:06:09;;;;;;;4.00;1.20;;;;;;;19.14;35.12;99125.96;79618;1294;3011627;-68
2024/04/20 10:08:41;;;;;;;1.60;0.80;;;;;;;19.11;35.45;99112.98;78393;1300;3051632;-70
2024/04/20 15:32:20;;;;;;;4.60;1.50;;;;;;;13.00;71.63;98696.05;80251;1304;3013259;-67
2024/04/20 15:34:47;;;;;;;7.10;1.80;;;;;;;13.02;71.08;98690.79;79096;1302;3019261;-69
2024/04/20 15:37:13;;;;;;;4.70;1.80;;;;;;;12.98;71.58;98680.58;79266;1302;3011657;-70
2024/04/20 15:39:42;;;;;;;2.30;1.40;;;;;;;12.91;72.01;98678.30;78048;1307;3028301;-70
2024/04/20 15:42:10;;;;;;;3.80;1.70;;;;;;;12.80;72.07;98682.91;79247;1307;3011814;-70
2024/04/20 15:44:41;;;;;;;5.70;1.90;;;;;;;12.84;71.93;98673.32;78036;1302;3013889;-66
2024/04/20 15:47:07;;;;;;;5.40;2.10;;;;;;;12.74;72.91;98660.77;79489;1298;3013574;-69
2024/04/20 15:49:34;;;;;;;10.00;2.10;;;;;;;12.70;73.04;98664.91;79463;1299;3011816;-69
2024/04/20 15:52:02;;;;;;;8.00;2.20;;;;;;;12.65;74.81;98668.16;78126;1303;3050892;-67
2024/04/20 15:54:29;;;;;;;2.60;1.60;;;;;;;12.67;74.91;98670.48;79861;1304;3012818;-65
2024/04/20 15:56:57;;;;;;;5.10;1.70;;;;;;;13.15;74.24;98668.96;79797;1301;3013495;-66
2024/04/20 15:59:25;;;;;;;4.00;1.60;;;;;;;13.66;71.84;98658.34;78178;1304;3051101;-67
2024/04/20 16:01:53;;;;;;;4.10;1.70;;;;;;;13.80;70.37;98657.67;79753;1298;3012858;-63
2024/04/20 16:04:20;;;;;;;3.50;1.80;;;;;;;13.61;69.80;98647.66;79510;1298;3011714;-69
2024/04/20 16:06:48;;;;;;;5.40;1.40;;;;;;;13.40;69.98;98658.77;78168;1299;3050763;-68
2024/04/20 16:09:18;;;;;;;5.20;1.80;;;;;;;13.30;69.95;98667.13;79478;1301;3018331;-66
2024/04/20 16:11:47;;;;;;;5.10;2.30;;;;;;;13.15;70.53;98664.02;79026;1298;3013007;-67
2024/04/20 16:14:14;;;;;;;4.40;2.30;;;;;;;13.06;70.80;98663.50;79840;1298;3012682;-69
2024/04/20 16:16:40;;;;;;;6.70;3.00;;;;;;;12.88;70.73;98658.52;79622;1298;3011450;-68
2024/04/20 16:19:08;;;;;;;6.70;4.10;;;;;;;12.84;70.80;98664.98;78468;1301;3026711;-65
2024/04/20 16:21:35;;;;;;;9.80;4.70;;;;;;;12.74;71.26;98666.52;79612;1298;3013303;-69
2024/04/20 16:24:03;;;;;;;7.90;4.00;;;;;;;12.71;71.33;98670.24;79499;1297;3011886;-67
2024/04/20 16:26:33;;;;;;;10.30;3.90;;;;;;;12.66;71.57;98667.38;78390;1298;3053834;-65
2024/04/20 16:29:00;;;;;;;6.20;3.00;;;;;;;12.63;71.86;98665.20;79740;1300;3012234;-66
2024/04/20 16:31:26;;;;;;;5.40;3.00;;;;;;;12.61;71.45;98673.73;79669;1296;3012898;-68
2024/04/20 16:33:55;;;;;;;9.10;3.60;;;;;;;12.62;71.50;98674.55;78406;1301;3048742;-68
2024/04/20 16:36:23;;;;;;;8.60;3.40;;;;;;;12.52;72.29;98667.86;79751;1295;3019072;-69
2024/04/20 16:38:51;;;;;;;6.10;3.10;;;;;;;12.53;71.67;98651.95;79356;1301;3013321;-68
2024/04/20 16:41:19;;;;;;;7.80;4.00;;;;;;;12.52;71.78;98647.40;78500;1301;3052672;-65